メインページ
METAR-TAF:

METAR-TAF

空港 :

出雲空港

出雲, 日本

緯度: 35-25N, 経度: 132-54E, 海抜: 2m

現時点の気象観測

当レポートは23分前の07:00(UTC)に作成
の風 13kt
気温 29°C
湿度 48%
気圧 1007 hPa
視程10km以上
高度3000ftの雲はほとんどない
高度5000ftの雲は散在している
高度7000ftの千切れ雲あり

METAR: RJOC 200700Z 09013KT 9999 FEW030 SCT050 BKN070 29/17 Q1007

時間: 16:23 (07:23 UTC)

予報

当レポートは2時間16分前の05:07(UTC)に作成
予報は20日の 06時(UTC)から 21日の 12時(UTC)まで有効
の風 7kt
視程10km以上
高度3000ftの雲はほとんどない

TAF: RJOC 200507Z 2006/2112 09007KT 9999 FEW030

4,000以上の空港の気象観測と天気予報(METAR報とTAF報)

利用可能な観測所は地図上に黄色い丸と赤い丸で示す。

丸の上にカーソルを重ねると観測所名を参照できる。

次にクリックすると気象観測と天気予報を参照できる。

マップの切り替え:黒色「×」印の緑ボタンをクリックして拡大、「-」印の緑ボタンをクリックして縮小、緑色の三角印をクリックして隣りの地図に切り替え


METAR-TAF: